createdAt,value
2018-07-22T00:00:43.882Z,17.10
2018-07-22T00:03:15.117Z,17.20
2018-07-22T00:05:46.303Z,17.20
2018-07-22T00:08:17.400Z,17.10
2018-07-22T00:10:48.293Z,17.00
2018-07-22T00:13:19.384Z,17.00
2018-07-22T00:15:50.646Z,17.00
2018-07-22T00:18:21.693Z,17.00
2018-07-22T00:30:37.274Z,16.90
2018-07-22T00:33:08.294Z,16.80
2018-07-22T00:35:39.466Z,16.70
2018-07-22T00:38:10.673Z,16.60
2018-07-22T00:40:41.702Z,16.70
2018-07-22T00:43:12.613Z,16.70
2018-07-22T00:45:46.913Z,16.60
2018-07-22T00:48:17.970Z,16.60
2018-07-22T00:50:49.153Z,16.60
2018-07-22T00:53:20.020Z,16.50
2018-07-22T00:58:21.253Z,16.50
2018-07-22T01:16:35.976Z,16.30
2018-07-22T01:19:07.368Z,16.30
2018-07-22T01:21:38.198Z,16.20
2018-07-22T01:24:09.092Z,16.20
2018-07-22T01:26:40.067Z,16.20
2018-07-22T01:29:11.032Z,16.20
2018-07-22T01:31:42.028Z,16.20
2018-07-22T01:34:13.183Z,16.20
2018-07-22T01:36:44.297Z,16.20
2018-07-22T01:39:15.221Z,16.30
2018-07-22T01:41:46.118Z,16.30
2018-07-22T01:44:17.118Z,16.30
2018-07-22T01:46:47.997Z,16.30
2018-07-22T01:49:18.769Z,16.40
2018-07-22T01:51:49.724Z,16.40
2018-07-22T01:54:20.678Z,16.30
2018-07-22T01:56:51.788Z,16.30
2018-07-22T01:59:22.698Z,16.30
2018-07-22T02:01:53.738Z,16.30
2018-07-22T02:04:24.662Z,16.30
2018-07-22T02:06:55.575Z,16.30
2018-07-22T02:09:26.558Z,16.30
2018-07-22T02:11:57.544Z,16.30
2018-07-22T02:14:28.414Z,16.20
2018-07-22T02:16:59.244Z,16.20
2018-07-22T02:19:30.095Z,16.20
2018-07-22T02:22:01.185Z,16.10
2018-07-22T02:24:32.173Z,16.10
2018-07-22T02:27:03.404Z,16.20
2018-07-22T02:29:34.270Z,16.20
2018-07-22T02:32:05.314Z,16.10
2018-07-22T02:34:36.381Z,16.10
2018-07-22T02:37:07.351Z,16.00
2018-07-22T02:39:38.560Z,15.90
2018-07-22T02:42:09.414Z,15.90
2018-07-22T02:44:40.500Z,15.80
2018-07-22T02:47:11.374Z,15.80
2018-07-22T02:49:42.336Z,15.70
2018-07-22T02:52:13.327Z,15.80
2018-07-22T02:54:44.294Z,15.80
2018-07-22T02:57:15.331Z,15.80
2018-07-22T02:59:46.344Z,15.80
2018-07-22T03:02:17.347Z,15.70
2018-07-22T03:04:48.478Z,15.70
2018-07-22T03:07:19.664Z,15.70
2018-07-22T03:09:50.905Z,15.70
2018-07-22T03:12:21.856Z,15.70
2018-07-22T03:14:52.989Z,15.70
2018-07-22T03:17:24.042Z,15.60
2018-07-22T03:19:55.081Z,15.60
2018-07-22T03:22:26.041Z,15.50
2018-07-22T03:24:57.120Z,15.50
2018-07-22T03:27:28.105Z,15.50
2018-07-22T03:29:59.361Z,15.50
2018-07-22T03:32:30.269Z,15.60
2018-07-22T03:35:01.214Z,15.60
2018-07-22T03:37:32.337Z,15.70
2018-07-22T03:40:03.463Z,15.60
2018-07-22T03:42:34.668Z,15.70
2018-07-22T03:45:05.798Z,15.70
2018-07-22T03:47:36.898Z,15.70
2018-07-22T03:50:08.248Z,15.80
2018-07-22T03:52:39.314Z,15.90
2018-07-22T03:55:10.488Z,16.00
2018-07-22T03:57:41.686Z,16.00
2018-07-22T04:00:35.361Z,16.00
2018-07-22T04:05:36.868Z,16.20
2018-07-22T04:08:07.926Z,16.20
2018-07-22T04:10:39.012Z,16.40
2018-07-22T04:13:10.680Z,16.50
2018-07-22T04:15:42.007Z,16.60
2018-07-22T04:18:13.125Z,16.70
2018-07-22T04:20:44.233Z,16.80
2018-07-22T04:23:15.275Z,16.90
2018-07-22T04:25:46.319Z,17.00
2018-07-22T04:28:17.534Z,17.00
2018-07-22T04:30:49.713Z,17.20
2018-07-22T04:33:20.850Z,17.30
2018-07-22T04:35:52.709Z,17.40
2018-07-22T04:38:24.310Z,17.50
2018-07-22T04:40:55.448Z,17.70
2018-07-22T04:43:26.445Z,17.90
2018-07-22T04:45:57.566Z,18.00
2018-07-22T04:48:29.650Z,18.20
2018-07-22T04:51:00.635Z,18.30
2018-07-22T04:53:31.806Z,18.50
2018-07-22T04:56:03.321Z,18.70
2018-07-22T04:58:34.421Z,18.90
2018-07-22T05:07:14.432Z,19.40
2018-07-22T05:09:45.576Z,19.60
2018-07-22T05:12:16.680Z,19.80
2018-07-22T05:14:47.737Z,19.90
2018-07-22T05:17:18.798Z,20.10
2018-07-22T05:19:49.891Z,20.20
2018-07-22T05:22:21.046Z,20.20
2018-07-22T05:24:52.307Z,20.30
2018-07-22T05:27:23.532Z,20.40
2018-07-22T05:29:58.072Z,20.40
2018-07-22T05:32:29.559Z,20.40
2018-07-22T05:35:00.946Z,20.40
2018-07-22T05:37:32.254Z,20.40
2018-07-22T05:40:03.466Z,20.40
2018-07-22T05:42:34.684Z,20.60
2018-07-22T05:45:05.638Z,20.70
2018-07-22T05:47:36.863Z,20.70
2018-07-22T05:50:08.368Z,20.80
2018-07-22T05:52:39.450Z,20.80
2018-07-22T05:55:11.002Z,20.90
2018-07-22T05:57:42.522Z,21.10
2018-07-22T06:00:13.918Z,21.30
2018-07-22T06:02:46.001Z,21.40
2018-07-22T06:05:16.910Z,21.50
2018-07-22T06:07:47.993Z,21.50
2018-07-22T06:10:18.992Z,21.90
2018-07-22T06:12:50.060Z,22.10
2018-07-22T06:15:21.205Z,22.30
2018-07-22T06:21:18.115Z,22.30
2018-07-22T06:23:49.254Z,22.20
2018-07-22T06:26:20.393Z,22.10
2018-07-22T06:28:51.394Z,22.10
2018-07-22T06:31:22.313Z,22.00
2018-07-22T06:33:53.513Z,21.90
2018-07-22T06:36:24.709Z,21.80
2018-07-22T06:38:55.885Z,21.70
2018-07-22T06:41:27.210Z,21.90
2018-07-22T06:43:58.438Z,22.20
2018-07-22T06:46:29.829Z,22.50
2018-07-22T06:49:02.339Z,22.70
2018-07-22T06:51:33.803Z,22.80
2018-07-22T06:54:05.186Z,23.00
2018-07-22T06:56:36.643Z,23.20
2018-07-22T06:59:08.122Z,23.30
2018-07-22T07:01:40.077Z,23.50
2018-07-22T07:04:11.516Z,23.70
2018-07-22T07:06:42.520Z,23.90
2018-07-22T07:27:59.357Z,24.70
2018-07-22T07:30:31.272Z,24.70
2018-07-22T07:35:33.362Z,24.80
2018-07-22T07:38:04.512Z,24.80
2018-07-22T07:40:35.816Z,24.80
2018-07-22T07:43:06.898Z,24.90
2018-07-22T07:45:38.173Z,25.10
2018-07-22T07:48:09.473Z,25.10
2018-07-22T07:50:40.930Z,25.10
2018-07-22T07:53:12.112Z,25.20
2018-07-22T07:55:43.396Z,25.30
2018-07-22T07:58:14.550Z,25.30
2018-07-22T08:00:45.554Z,25.50
2018-07-22T08:03:16.895Z,25.70
2018-07-22T08:05:47.938Z,25.90
2018-07-22T08:08:18.945Z,26.00
2018-07-22T08:10:50.044Z,26.00
2018-07-22T08:13:21.033Z,26.20
2018-07-22T08:15:52.196Z,26.20
2018-07-22T08:18:23.346Z,26.30
2018-07-22T08:20:54.436Z,26.30
2018-07-22T08:23:25.622Z,26.40
2018-07-22T08:25:57.172Z,26.50
2018-07-22T08:28:50.601Z,26.60
2018-07-22T08:31:22.166Z,26.70
2018-07-22T08:33:53.442Z,26.80
2018-07-22T08:36:25.104Z,26.90
2018-07-22T08:38:56.472Z,27.00
2018-07-22T08:41:27.959Z,26.90
2018-07-22T08:43:59.371Z,27.00
2018-07-22T08:46:30.694Z,27.10
2018-07-22T08:52:34.563Z,27.30
2018-07-22T08:55:06.502Z,27.40
2018-07-22T08:57:37.798Z,27.60
2018-07-22T09:00:09.218Z,27.80
2018-07-22T09:02:40.632Z,28.00
2018-07-22T09:05:11.917Z,27.80
2018-07-22T09:07:43.676Z,27.90
2018-07-22T09:10:15.029Z,27.80
2018-07-22T09:12:46.401Z,28.00
2018-07-22T09:15:17.637Z,28.10
2018-07-22T09:20:20.008Z,28.50
2018-07-22T09:22:51.437Z,28.50
2018-07-22T09:25:22.906Z,28.50
2018-07-22T09:27:53.995Z,28.50
2018-07-22T09:30:25.324Z,28.50
2018-07-22T09:32:56.860Z,28.50
2018-07-22T09:35:28.163Z,28.60
2018-07-22T09:37:59.450Z,28.70
2018-07-22T09:43:01.698Z,28.70
2018-07-22T09:45:32.935Z,28.80
2018-07-22T09:48:04.284Z,28.90
2018-07-22T09:50:35.640Z,29.10
2018-07-22T09:53:07.039Z,29.10
2018-07-22T09:55:38.358Z,29.20
2018-07-22T09:58:10.321Z,29.30
2018-07-22T10:00:46.647Z,29.30
2018-07-22T10:03:17.798Z,29.40
2018-07-22T10:05:49.518Z,29.50
2018-07-22T10:08:21.042Z,29.60
2018-07-22T10:10:52.417Z,29.60
2018-07-22T10:13:24.009Z,29.80
2018-07-22T10:15:55.146Z,30.00
2018-07-22T10:18:26.500Z,30.20
2018-07-22T10:20:57.865Z,30.20
2018-07-22T10:23:29.083Z,30.30
2018-07-22T10:26:00.309Z,30.40
2018-07-22T10:28:31.864Z,30.40
2018-07-22T10:31:04.110Z,30.50
2018-07-22T10:33:35.423Z,30.50
2018-07-22T10:36:08.155Z,30.60
2018-07-22T10:38:39.703Z,30.70
2018-07-22T10:41:11.296Z,30.70
2018-07-22T10:43:42.895Z,30.80
2018-07-22T10:46:14.213Z,30.80
2018-07-22T10:48:45.951Z,30.90
2018-07-22T10:51:18.270Z,31.00
2018-07-22T10:56:20.259Z,31.10
2018-07-22T11:01:23.299Z,31.40
2018-07-22T11:03:54.612Z,31.60
2018-07-22T11:06:26.000Z,31.80
2018-07-22T11:08:57.632Z,31.90
2018-07-22T11:11:28.993Z,31.90
2018-07-22T11:14:00.620Z,31.90
2018-07-22T11:16:31.887Z,31.80
2018-07-22T11:19:03.530Z,31.70
2018-07-22T11:21:34.850Z,31.50
2018-07-22T11:24:06.879Z,31.30
2018-07-22T11:26:38.873Z,31.40
2018-07-22T11:29:10.907Z,31.70
2018-07-22T11:31:42.116Z,31.70
2018-07-22T11:34:13.801Z,31.70
2018-07-22T11:36:45.542Z,31.60
2018-07-22T11:39:17.583Z,31.50
2018-07-22T11:41:50.176Z,31.40
2018-07-22T11:44:21.360Z,31.50
2018-07-22T11:46:52.604Z,31.60
2018-07-22T11:51:54.693Z,31.60
2018-07-22T11:54:25.964Z,31.70
2018-07-22T11:56:57.317Z,31.90
2018-07-22T11:59:28.885Z,32.20
2018-07-22T12:02:00.183Z,32.30
2018-07-22T12:04:31.334Z,32.10
2018-07-22T12:07:02.804Z,31.80
2018-07-22T12:09:34.242Z,31.50
2018-07-22T12:12:05.342Z,31.40
2018-07-22T12:17:07.296Z,31.30
2018-07-22T12:19:38.362Z,31.30
2018-07-22T12:24:39.998Z,31.30
2018-07-22T12:27:11.324Z,31.10
2018-07-22T12:29:42.637Z,31.00
2018-07-22T12:32:14.080Z,30.80
2018-07-22T12:34:45.556Z,30.70
2018-07-22T12:37:17.095Z,30.60
2018-07-22T12:39:48.449Z,30.50
2018-07-22T12:44:51.103Z,30.50
2018-07-22T12:47:22.309Z,30.40
2018-07-22T12:49:53.733Z,30.30
2018-07-22T12:52:25.439Z,30.10
2018-07-22T12:54:59.009Z,30.10
2018-07-22T12:57:30.679Z,30.10
2018-07-22T13:00:02.596Z,30.10
2018-07-22T13:02:34.289Z,30.00
2018-07-22T13:05:06.148Z,29.90
2018-07-22T13:07:39.339Z,29.80
2018-07-22T13:10:10.826Z,29.80
2018-07-22T13:12:42.262Z,29.60
2018-07-22T13:15:14.263Z,28.80
2018-07-22T13:20:17.197Z,26.80
2018-07-22T13:22:48.390Z,26.10
2018-07-22T13:25:19.515Z,25.90
2018-07-22T13:27:51.180Z,25.80
2018-07-22T13:30:22.689Z,25.80
2018-07-22T13:32:54.174Z,26.10
2018-07-22T13:35:25.949Z,26.30
2018-07-22T13:37:57.558Z,26.60
2018-07-22T13:40:28.946Z,27.00
2018-07-22T13:43:00.617Z,27.30
2018-07-22T13:45:31.984Z,27.50
2018-07-22T13:50:34.554Z,27.50
2018-07-22T13:53:06.193Z,27.40
2018-07-22T13:55:37.485Z,27.30
2018-07-22T13:58:09.245Z,27.20
2018-07-22T14:00:41.005Z,27.10
2018-07-22T14:03:13.210Z,27.10
2018-07-22T14:05:45.992Z,27.00
2018-07-22T14:08:17.564Z,27.00
2018-07-22T14:10:49.112Z,27.20
2018-07-22T14:13:21.890Z,27.30
2018-07-22T14:15:54.254Z,27.20
2018-07-22T14:18:34.460Z,27.10
2018-07-22T14:21:05.848Z,27.20
2018-07-22T14:23:37.274Z,27.30
2018-07-22T14:26:08.469Z,27.30
2018-07-22T14:28:39.620Z,27.40
2018-07-22T14:31:11.906Z,27.50
2018-07-22T14:33:42.970Z,27.70
2018-07-22T14:36:14.240Z,28.00
2018-07-22T14:38:45.466Z,28.20
2018-07-22T14:41:16.668Z,28.50
2018-07-22T14:43:48.056Z,28.30
2018-07-22T14:46:19.240Z,28.20
2018-07-22T14:48:50.442Z,28.00
2018-07-22T14:51:22.886Z,27.90
2018-07-22T14:53:54.058Z,27.70
2018-07-22T14:56:25.262Z,27.50
2018-07-22T14:58:56.367Z,27.50
2018-07-22T15:01:28.520Z,27.60
2018-07-22T15:03:59.772Z,27.70
2018-07-22T15:06:31.413Z,27.80
2018-07-22T15:09:04.336Z,27.80
2018-07-22T15:11:35.623Z,27.80
2018-07-22T15:14:06.931Z,27.90
2018-07-22T15:16:38.290Z,28.10
2018-07-22T15:19:09.562Z,28.10
2018-07-22T15:21:41.042Z,28.20
2018-07-22T15:24:12.390Z,28.40
2018-07-22T15:26:43.774Z,28.50
2018-07-22T15:29:15.192Z,28.50
2018-07-22T15:31:47.051Z,28.50
2018-07-22T15:34:18.614Z,28.50
2018-07-22T15:36:50.077Z,28.60
2018-07-22T15:39:22.286Z,28.90
2018-07-22T15:41:55.920Z,29.20
2018-07-22T15:44:27.511Z,29.20
2018-07-22T15:46:58.789Z,29.30
2018-07-22T15:49:30.168Z,29.20
2018-07-22T15:52:03.045Z,29.20
2018-07-22T15:54:34.996Z,29.20
2018-07-22T15:57:07.604Z,29.10
2018-07-22T15:59:39.201Z,29.20
2018-07-22T16:02:10.681Z,29.20
2018-07-22T16:04:42.215Z,29.20
2018-07-22T16:07:14.039Z,29.30
2018-07-22T16:09:47.743Z,29.20
2018-07-22T16:12:19.916Z,29.20
2018-07-22T16:14:51.702Z,29.10
2018-07-22T16:17:23.567Z,29.20
2018-07-22T16:19:55.452Z,29.20
2018-07-22T16:22:26.708Z,29.10
2018-07-22T16:24:58.300Z,29.00
2018-07-22T16:27:29.785Z,28.90
2018-07-22T16:30:01.279Z,28.90
2018-07-22T16:32:34.459Z,28.90
2018-07-22T16:35:06.307Z,28.70
2018-07-22T16:37:37.737Z,28.50
2018-07-22T16:40:09.297Z,28.30
2018-07-22T16:42:41.157Z,28.10
2018-07-22T16:45:14.205Z,28.00
2018-07-22T16:47:58.244Z,27.80
2018-07-22T16:50:29.607Z,27.60
2018-07-22T16:53:01.056Z,27.50
2018-07-22T16:58:03.042Z,27.10
2018-07-22T17:00:34.581Z,26.90
2018-07-22T17:03:05.557Z,26.80
2018-07-22T17:05:37.016Z,26.60
2018-07-22T17:08:08.177Z,26.40
2018-07-22T17:10:39.513Z,26.30
2018-07-22T17:13:11.040Z,26.10
2018-07-22T17:15:42.346Z,26.00
2018-07-22T17:18:13.844Z,26.00
2018-07-22T17:20:45.107Z,25.80
2018-07-22T17:23:16.830Z,25.70
2018-07-22T17:25:48.043Z,25.60
2018-07-22T17:28:19.656Z,25.60
2018-07-22T17:30:50.859Z,25.60
2018-07-22T17:33:22.582Z,25.50
2018-07-22T17:35:54.308Z,25.60
2018-07-22T17:38:25.670Z,25.50
2018-07-22T17:40:57.058Z,25.30
2018-07-22T17:43:28.273Z,25.10
2018-07-22T17:45:59.723Z,24.90
2018-07-22T17:48:31.163Z,24.80
2018-07-22T17:51:02.818Z,24.70
2018-07-22T17:53:34.385Z,24.60
2018-07-22T17:56:05.943Z,24.60
2018-07-22T17:58:37.377Z,24.60
2018-07-22T18:01:08.783Z,24.50
2018-07-22T18:03:40.044Z,24.50
2018-07-22T18:06:11.423Z,24.60
2018-07-22T18:08:42.836Z,24.60
2018-07-22T18:11:14.365Z,24.60
2018-07-22T18:13:45.534Z,24.60
2018-07-22T18:16:16.676Z,24.50
2018-07-22T18:18:48.045Z,24.40
2018-07-22T18:21:19.661Z,24.30
2018-07-22T18:23:51.155Z,24.20
2018-07-22T18:26:22.526Z,24.20
2018-07-22T18:28:54.302Z,24.10
2018-07-22T18:31:25.784Z,24.00
2018-07-22T18:33:57.254Z,23.80
2018-07-22T18:36:28.724Z,23.70
2018-07-22T18:39:00.151Z,23.60
2018-07-22T18:41:32.366Z,23.50
2018-07-22T18:44:03.986Z,23.40
2018-07-22T18:46:35.734Z,23.30
2018-07-22T18:49:07.479Z,23.30
2018-07-22T18:51:38.955Z,23.20
2018-07-22T18:54:10.186Z,23.10
2018-07-22T18:56:41.894Z,23.10
2018-07-22T18:59:13.354Z,23.00
2018-07-22T19:01:44.729Z,22.90
2018-07-22T19:04:16.029Z,22.80
2018-07-22T19:06:47.236Z,22.80
2018-07-22T19:09:18.597Z,22.80
2018-07-22T19:11:50.352Z,22.70
2018-07-22T19:14:22.185Z,22.50
2018-07-22T19:16:53.780Z,22.50
2018-07-22T19:19:25.422Z,22.50
2018-07-22T19:21:56.582Z,22.40
2018-07-22T19:24:27.936Z,22.30
2018-07-22T19:26:59.327Z,22.30
2018-07-22T19:29:30.598Z,22.30
2018-07-22T19:32:01.874Z,22.20
2018-07-22T19:34:32.900Z,22.10
2018-07-22T19:37:04.321Z,22.10
2018-07-22T19:39:36.226Z,22.10
2018-07-22T19:44:38.222Z,22.00
2018-07-22T19:47:09.703Z,21.80
2018-07-22T19:49:54.746Z,21.70
2018-07-22T19:52:26.178Z,21.60
2018-07-22T19:54:57.294Z,21.50
2018-07-22T19:57:28.372Z,21.50
2018-07-22T19:59:59.589Z,21.40
2018-07-22T20:02:31.612Z,21.40
2018-07-22T20:05:02.687Z,21.40
2018-07-22T20:07:33.971Z,21.30
2018-07-22T20:10:05.281Z,21.20
2018-07-22T20:12:36.417Z,21.20
2018-07-22T20:15:07.821Z,21.20
2018-07-22T20:17:39.025Z,21.10
2018-07-22T20:20:12.785Z,21.00
2018-07-22T20:22:43.900Z,20.90
2018-07-22T20:25:14.824Z,20.90
2018-07-22T20:27:46.045Z,20.80
2018-07-22T20:30:17.185Z,20.80
2018-07-22T20:32:48.507Z,20.70
2018-07-22T20:35:19.545Z,20.70
2018-07-22T20:37:50.534Z,20.70
2018-07-22T20:40:21.593Z,20.80
2018-07-22T20:42:52.581Z,20.80
2018-07-22T20:45:23.736Z,20.70
2018-07-22T20:47:54.905Z,20.70
2018-07-22T20:50:25.961Z,20.70
2018-07-22T20:52:56.931Z,20.70
2018-07-22T20:55:28.419Z,20.70
2018-07-22T20:57:59.663Z,20.70
2018-07-22T21:00:30.612Z,20.70
2018-07-22T21:03:01.674Z,20.60
2018-07-22T21:05:32.666Z,20.60
2018-07-22T21:08:03.771Z,20.50
2018-07-22T21:10:34.709Z,20.60
2018-07-22T21:13:21.173Z,20.60
2018-07-22T21:15:52.208Z,20.60
2018-07-22T21:18:22.953Z,20.60
2018-07-22T21:20:54.003Z,20.60
2018-07-22T21:23:25.087Z,20.60
2018-07-22T21:25:56.304Z,20.60
2018-07-22T21:28:27.630Z,20.60
2018-07-22T21:30:58.995Z,20.50
2018-07-22T21:33:29.968Z,20.40
2018-07-22T21:36:00.964Z,20.40
2018-07-22T21:38:31.866Z,20.50
2018-07-22T21:41:02.875Z,20.70
2018-07-22T21:43:33.848Z,20.80
2018-07-22T21:46:04.742Z,20.80
2018-07-22T21:48:35.943Z,20.90
2018-07-22T21:51:07.336Z,21.00
2018-07-22T21:53:38.454Z,21.00
2018-07-22T21:56:09.518Z,20.90
2018-07-22T21:58:40.581Z,20.80
2018-07-22T22:01:11.752Z,20.80
2018-07-22T22:03:42.822Z,20.80
2018-07-22T22:06:13.937Z,20.70
2018-07-22T22:08:45.024Z,20.60
2018-07-22T22:11:16.303Z,20.50
2018-07-22T22:13:47.394Z,20.50
2018-07-22T22:16:18.613Z,20.50
2018-07-22T22:18:49.804Z,20.40
2018-07-22T22:21:21.207Z,20.40
2018-07-22T22:23:52.487Z,20.30
2018-07-22T22:26:23.603Z,20.30
2018-07-22T22:28:54.821Z,20.30
2018-07-22T22:31:26.001Z,20.30
2018-07-22T22:33:57.228Z,20.40
2018-07-22T22:36:28.391Z,20.40
2018-07-22T22:38:59.558Z,20.50
2018-07-22T22:41:30.777Z,20.50
2018-07-22T22:44:02.077Z,20.40
2018-07-22T22:46:33.262Z,20.50
2018-07-22T22:49:04.490Z,20.50
2018-07-22T22:51:35.563Z,20.50
2018-07-22T22:54:06.614Z,20.50
2018-07-22T22:56:37.716Z,20.40
2018-07-22T22:59:23.731Z,20.40
2018-07-22T23:01:54.789Z,20.40
2018-07-22T23:04:25.868Z,20.30
2018-07-22T23:06:56.845Z,20.40
2018-07-22T23:09:27.681Z,20.40
2018-07-22T23:11:58.482Z,20.40
2018-07-22T23:17:00.740Z,20.30
2018-07-22T23:19:31.592Z,20.20
2018-07-22T23:22:02.288Z,20.10
2018-07-22T23:24:33.236Z,20.10
2018-07-22T23:27:04.235Z,20.00
2018-07-22T23:29:35.117Z,20.00
2018-07-22T23:32:06.138Z,20.00
2018-07-22T23:34:37.072Z,20.00
2018-07-22T23:37:08.009Z,19.90
2018-07-22T23:39:39.381Z,19.90
2018-07-22T23:42:10.363Z,20.00
2018-07-22T23:44:41.646Z,20.00
2018-07-22T23:47:12.848Z,20.00
2018-07-22T23:49:43.852Z,20.00
2018-07-22T23:52:14.698Z,20.00
2018-07-22T23:54:45.600Z,20.00
2018-07-22T23:57:16.809Z,20.00
2018-07-22T23:59:47.751Z,20.00
